sensor_id;sensor_type;location;lat;lon;timestamp;temperature;humidity
23371;DHT22;11858;51.056;3.712;2022-12-18T00:01:37;-2.40;99.90
23371;DHT22;11858;51.056;3.712;2022-12-18T00:04:04;-2.40;99.90
23371;DHT22;11858;51.056;3.712;2022-12-18T00:06:31;-2.50;99.90
23371;DHT22;11858;51.056;3.712;2022-12-18T00:08:58;-2.60;99.90
23371;DHT22;11858;51.056;3.712;2022-12-18T00:11:27;-2.70;99.90
23371;DHT22;11858;51.056;3.712;2022-12-18T00:13:55;-2.60;99.90
23371;DHT22;11858;51.056;3.712;2022-12-18T00:16:22;-2.60;99.90
23371;DHT22;11858;51.056;3.712;2022-12-18T00:18:51;-2.70;99.90
23371;DHT22;11858;51.056;3.712;2022-12-18T00:21:18;-2.70;99.90
23371;DHT22;11858;51.056;3.712;2022-12-18T00:23:44;-2.70;99.90
23371;DHT22;11858;51.056;3.712;2022-12-18T00:26:13;-2.70;99.90
23371;DHT22;11858;51.056;3.712;2022-12-18T00:28:40;-2.80;99.90
23371;DHT22;11858;51.056;3.712;2022-12-18T00:31:11;-2.70;99.90
23371;DHT22;11858;51.056;3.712;2022-12-18T00:33:37;-2.60;99.90
23371;DHT22;11858;51.056;3.712;2022-12-18T00:36:05;-2.70;99.90
23371;DHT22;11858;51.056;3.712;2022-12-18T00:38:32;-2.80;99.90
23371;DHT22;11858;51.056;3.712;2022-12-18T00:40:58;-2.90;99.90
23371;DHT22;11858;51.056;3.712;2022-12-18T00:43:23;-2.80;99.90
23371;DHT22;11858;51.056;3.712;2022-12-18T00:45:49;-3.00;99.90
23371;DHT22;11858;51.056;3.712;2022-12-18T00:48:15;-3.00;99.90
23371;DHT22;11858;51.056;3.712;2022-12-18T00:50:41;-3.20;99.90
23371;DHT22;11858;51.056;3.712;2022-12-18T00:53:06;-3.20;99.90
23371;DHT22;11858;51.056;3.712;2022-12-18T00:55:32;-3.30;99.90
23371;DHT22;11858;51.056;3.712;2022-12-18T00:57:58;-3.30;99.90
23371;DHT22;11858;51.056;3.712;2022-12-18T01:00:23;-3.20;99.90
23371;DHT22;11858;51.056;3.712;2022-12-18T01:02:49;-3.20;99.90
23371;DHT22;11858;51.056;3.712;2022-12-18T01:05:15;-3.30;99.90
23371;DHT22;11858;51.056;3.712;2022-12-18T01:07:41;-3.30;99.90
23371;DHT22;11858;51.056;3.712;2022-12-18T01:10:09;-3.30;99.90
23371;DHT22;11858;51.056;3.712;2022-12-18T01:12:35;-3.20;99.90
23371;DHT22;11858;51.056;3.712;2022-12-18T01:15:01;-3.20;99.90
23371;DHT22;11858;51.056;3.712;2022-12-18T01:17:27;-3.10;99.90
23371;DHT22;11858;51.056;3.712;2022-12-18T01:19:53;-3.20;99.90
23371;DHT22;11858;51.056;3.712;2022-12-18T01:22:19;-3.20;99.90
23371;DHT22;11858;51.056;3.712;2022-12-18T01:24:44;-3.20;99.90
23371;DHT22;11858;51.056;3.712;2022-12-18T01:27:10;-3.20;99.90
23371;DHT22;11858;51.056;3.712;2022-12-18T01:29:36;-3.20;99.90
23371;DHT22;11858;51.056;3.712;2022-12-18T01:32:01;-3.10;99.90
23371;DHT22;11858;51.056;3.712;2022-12-18T01:34:27;-3.20;99.90
23371;DHT22;11858;51.056;3.712;2022-12-18T01:36:53;-3.20;99.90
23371;DHT22;11858;51.056;3.712;2022-12-18T01:39:18;-3.20;99.90
23371;DHT22;11858;51.056;3.712;2022-12-18T01:41:45;-3.30;99.90
23371;DHT22;11858;51.056;3.712;2022-12-18T01:49:52;-3.30;99.90
23371;DHT22;11858;51.056;3.712;2022-12-18T01:52:19;-3.50;99.90
23371;DHT22;11858;51.056;3.712;2022-12-18T01:54:46;-3.50;99.90
23371;DHT22;11858;51.056;3.712;2022-12-18T01:57:13;-3.50;99.90
23371;DHT22;11858;51.056;3.712;2022-12-18T01:59:39;-3.60;99.90
23371;DHT22;11858;51.056;3.712;2022-12-18T02:02:06;-3.70;99.90
23371;DHT22;11858;51.056;3.712;2022-12-18T02:04:33;-3.70;99.90
23371;DHT22;11858;51.056;3.712;2022-12-18T02:07:37;-3.70;99.90
23371;DHT22;11858;51.056;3.712;2022-12-18T02:10:29;-3.60;99.90
23371;DHT22;11858;51.056;3.712;2022-12-18T02:13:37;-3.50;99.90
23371;DHT22;11858;51.056;3.712;2022-12-18T02:19:20;-3.40;99.90
23371;DHT22;11858;51.056;3.712;2022-12-18T02:27:11;-3.60;99.90
23371;DHT22;11858;51.056;3.712;2022-12-18T02:29:46;-3.70;99.90
23371;DHT22;11858;51.056;3.712;2022-12-18T02:32:17;-3.70;99.90
23371;DHT22;11858;51.056;3.712;2022-12-18T02:34:44;-3.70;99.90
23371;DHT22;11858;51.056;3.712;2022-12-18T02:37:14;-3.50;99.90
23371;DHT22;11858;51.056;3.712;2022-12-18T02:39:43;-3.40;99.90
23371;DHT22;11858;51.056;3.712;2022-12-18T02:42:10;-3.50;99.90
23371;DHT22;11858;51.056;3.712;2022-12-18T02:44:48;-3.50;99.90
23371;DHT22;11858;51.056;3.712;2022-12-18T02:47:16;-3.50;99.90
23371;DHT22;11858;51.056;3.712;2022-12-18T02:49:53;-3.60;99.90
23371;DHT22;11858;51.056;3.712;2022-12-18T02:52:47;-3.70;99.90
23371;DHT22;11858;51.056;3.712;2022-12-18T02:57:59;-3.70;99.90
23371;DHT22;11858;51.056;3.712;2022-12-18T03:03:19;-3.70;99.90
23371;DHT22;11858;51.056;3.712;2022-12-18T03:05:53;-3.80;99.90
23371;DHT22;11858;51.056;3.712;2022-12-18T03:08:27;-3.90;99.90
23371;DHT22;11858;51.056;3.712;2022-12-18T03:11:10;-3.70;99.90
23371;DHT22;11858;51.056;3.712;2022-12-18T03:13:46;-3.70;99.90
23371;DHT22;11858;51.056;3.712;2022-12-18T03:16:26;-3.80;99.90
23371;DHT22;11858;51.056;3.712;2022-12-18T03:19:24;-3.80;99.90
23371;DHT22;11858;51.056;3.712;2022-12-18T03:21:55;-3.90;99.90
23371;DHT22;11858;51.056;3.712;2022-12-18T03:24:22;-4.00;99.90
23371;DHT22;11858;51.056;3.712;2022-12-18T03:26:53;-4.00;99.90
23371;DHT22;11858;51.056;3.712;2022-12-18T03:29:27;-4.00;99.90
23371;DHT22;11858;51.056;3.712;2022-12-18T03:31:57;-3.90;99.90
23371;DHT22;11858;51.056;3.712;2022-12-18T03:34:35;-4.00;99.90
23371;DHT22;11858;51.056;3.712;2022-12-18T03:37:02;-3.90;99.90
23371;DHT22;11858;51.056;3.712;2022-12-18T03:39:28;-3.80;99.90
23371;DHT22;11858;51.056;3.712;2022-12-18T03:42:25;-3.80;99.90
23371;DHT22;11858;51.056;3.712;2022-12-18T03:45:12;-3.90;99.90
23371;DHT22;11858;51.056;3.712;2022-12-18T03:51:50;-4.00;99.90
23371;DHT22;11858;51.056;3.712;2022-12-18T03:54:18;-4.10;99.90
23371;DHT22;11858;51.056;3.712;2022-12-18T03:56:52;-4.10;99.90
23371;DHT22;11858;51.056;3.712;2022-12-18T03:59:20;-4.10;99.90
23371;DHT22;11858;51.056;3.712;2022-12-18T04:01:49;-4.10;99.90
23371;DHT22;11858;51.056;3.712;2022-12-18T04:04:16;-4.00;99.90
23371;DHT22;11858;51.056;3.712;2022-12-18T04:06:43;-4.10;99.90
23371;DHT22;11858;51.056;3.712;2022-12-18T04:09:10;-4.20;99.90
23371;DHT22;11858;51.056;3.712;2022-12-18T04:11:36;-4.30;99.90
23371;DHT22;11858;51.056;3.712;2022-12-18T04:14:02;-4.30;99.90
23371;DHT22;11858;51.056;3.712;2022-12-18T04:16:27;-4.30;99.90
23371;DHT22;11858;51.056;3.712;2022-12-18T04:18:54;-4.20;99.90
23371;DHT22;11858;51.056;3.712;2022-12-18T04:21:20;-4.20;99.90
23371;DHT22;11858;51.056;3.712;2022-12-18T04:23:46;-4.00;99.90
23371;DHT22;11858;51.056;3.712;2022-12-18T04:26:12;-3.90;99.90
23371;DHT22;11858;51.056;3.712;2022-12-18T04:28:37;-4.00;99.90
23371;DHT22;11858;51.056;3.712;2022-12-18T04:31:03;-4.00;99.90
23371;DHT22;11858;51.056;3.712;2022-12-18T04:33:29;-3.90;99.90
23371;DHT22;11858;51.056;3.712;2022-12-18T04:35:54;-3.80;99.90
23371;DHT22;11858;51.056;3.712;2022-12-18T04:38:20;-3.80;99.90
23371;DHT22;11858;51.056;3.712;2022-12-18T04:40:45;-3.80;99.90
23371;DHT22;11858;51.056;3.712;2022-12-18T04:43:11;-3.90;99.90
23371;DHT22;11858;51.056;3.712;2022-12-18T04:45:37;-3.80;99.90
23371;DHT22;11858;51.056;3.712;2022-12-18T04:48:03;-3.70;99.90
23371;DHT22;11858;51.056;3.712;2022-12-18T04:50:29;-4.00;99.90
23371;DHT22;11858;51.056;3.712;2022-12-18T04:52:55;-4.00;99.90
23371;DHT22;11858;51.056;3.712;2022-12-18T04:55:21;-4.00;99.90
23371;DHT22;11858;51.056;3.712;2022-12-18T04:57:47;-4.10;99.90
23371;DHT22;11858;51.056;3.712;2022-12-18T05:00:13;-4.10;99.90
23371;DHT22;11858;51.056;3.712;2022-12-18T05:02:39;-4.00;99.90
23371;DHT22;11858;51.056;3.712;2022-12-18T05:05:05;-4.00;99.90
23371;DHT22;11858;51.056;3.712;2022-12-18T05:07:31;-4.00;99.90
23371;DHT22;11858;51.056;3.712;2022-12-18T05:09:57;-4.20;99.90
23371;DHT22;11858;51.056;3.712;2022-12-18T05:12:24;-4.20;99.90
23371;DHT22;11858;51.056;3.712;2022-12-18T05:14:50;-4.10;99.90
23371;DHT22;11858;51.056;3.712;2022-12-18T05:17:15;-4.30;99.90
23371;DHT22;11858;51.056;3.712;2022-12-18T05:19:41;-4.30;99.90
23371;DHT22;11858;51.056;3.712;2022-12-18T05:22:07;-4.40;99.90
23371;DHT22;11858;51.056;3.712;2022-12-18T05:24:33;-4.30;99.90
23371;DHT22;11858;51.056;3.712;2022-12-18T05:26:59;-4.20;99.90
23371;DHT22;11858;51.056;3.712;2022-12-18T05:29:24;-4.10;99.90
23371;DHT22;11858;51.056;3.712;2022-12-18T05:31:50;-4.10;99.90
23371;DHT22;11858;51.056;3.712;2022-12-18T05:34:16;-4.10;99.90
23371;DHT22;11858;51.056;3.712;2022-12-18T05:36:42;-4.10;99.90
23371;DHT22;11858;51.056;3.712;2022-12-18T05:39:08;-4.00;99.90
23371;DHT22;11858;51.056;3.712;2022-12-18T05:41:33;-4.10;99.90
23371;DHT22;11858;51.056;3.712;2022-12-18T05:43:59;-4.10;99.90
23371;DHT22;11858;51.056;3.712;2022-12-18T05:46:25;-4.20;99.90
23371;DHT22;11858;51.056;3.712;2022-12-18T05:48:51;-4.30;99.90
23371;DHT22;11858;51.056;3.712;2022-12-18T05:51:19;-4.20;99.90
23371;DHT22;11858;51.056;3.712;2022-12-18T05:53:46;-4.10;99.90
23371;DHT22;11858;51.056;3.712;2022-12-18T05:56:15;-4.10;99.90
23371;DHT22;11858;51.056;3.712;2022-12-18T05:58:41;-4.10;99.90
23371;DHT22;11858;51.056;3.712;2022-12-18T06:01:15;-4.20;99.90
23371;DHT22;11858;51.056;3.712;2022-12-18T06:03:42;-4.20;99.90
23371;DHT22;11858;51.056;3.712;2022-12-18T06:06:19;-4.10;99.90
23371;DHT22;11858;51.056;3.712;2022-12-18T06:08:47;-4.10;99.90
23371;DHT22;11858;51.056;3.712;2022-12-18T06:11:16;-3.90;99.90
23371;DHT22;11858;51.056;3.712;2022-12-18T06:13:42;-4.00;99.90
23371;DHT22;11858;51.056;3.712;2022-12-18T06:16:07;-4.00;99.90
23371;DHT22;11858;51.056;3.712;2022-12-18T06:18:33;-3.90;99.90
23371;DHT22;11858;51.056;3.712;2022-12-18T06:20:59;-4.00;99.90
23371;DHT22;11858;51.056;3.712;2022-12-18T06:23:26;-3.90;99.90
23371;DHT22;11858;51.056;3.712;2022-12-18T06:25:52;-4.00;99.90
23371;DHT22;11858;51.056;3.712;2022-12-18T06:28:17;-4.10;99.90
23371;DHT22;11858;51.056;3.712;2022-12-18T06:30:44;-3.90;99.90
23371;DHT22;11858;51.056;3.712;2022-12-18T06:33:10;-3.90;99.90
23371;DHT22;11858;51.056;3.712;2022-12-18T06:35:36;-3.80;99.90
23371;DHT22;11858;51.056;3.712;2022-12-18T06:38:02;-3.80;99.90
23371;DHT22;11858;51.056;3.712;2022-12-18T06:40:29;-4.00;99.90
23371;DHT22;11858;51.056;3.712;2022-12-18T06:42:54;-4.00;99.90
23371;DHT22;11858;51.056;3.712;2022-12-18T06:45:20;-3.90;99.90
23371;DHT22;11858;51.056;3.712;2022-12-18T06:47:46;-4.00;99.90
23371;DHT22;11858;51.056;3.712;2022-12-18T06:50:12;-3.80;99.90
23371;DHT22;11858;51.056;3.712;2022-12-18T06:52:38;-3.80;99.90
23371;DHT22;11858;51.056;3.712;2022-12-18T06:55:09;-3.80;99.90
23371;DHT22;11858;51.056;3.712;2022-12-18T06:57:36;-3.90;99.90
23371;DHT22;11858;51.056;3.712;2022-12-18T07:00:04;-3.90;99.90
23371;DHT22;11858;51.056;3.712;2022-12-18T07:02:30;-3.80;99.90
23371;DHT22;11858;51.056;3.712;2022-12-18T07:04:56;-3.70;99.90
23371;DHT22;11858;51.056;3.712;2022-12-18T07:07:22;-3.70;99.90
23371;DHT22;11858;51.056;3.712;2022-12-18T07:09:49;-3.50;99.90
23371;DHT22;11858;51.056;3.712;2022-12-18T07:12:15;-3.50;99.90
23371;DHT22;11858;51.056;3.712;2022-12-18T07:14:40;-3.50;99.90
23371;DHT22;11858;51.056;3.712;2022-12-18T07:17:06;-3.70;99.90
23371;DHT22;11858;51.056;3.712;2022-12-18T07:19:32;-3.90;99.90
23371;DHT22;11858;51.056;3.712;2022-12-18T07:21:57;-3.80;99.90
23371;DHT22;11858;51.056;3.712;2022-12-18T07:24:23;-3.80;99.90
23371;DHT22;11858;51.056;3.712;2022-12-18T07:26:49;-3.80;99.90
23371;DHT22;11858;51.056;3.712;2022-12-18T07:29:14;-3.80;99.90
23371;DHT22;11858;51.056;3.712;2022-12-18T07:31:40;-3.90;99.90
23371;DHT22;11858;51.056;3.712;2022-12-18T07:34:11;-4.00;99.90
23371;DHT22;11858;51.056;3.712;2022-12-18T07:36:37;-3.90;99.90
23371;DHT22;11858;51.056;3.712;2022-12-18T07:39:03;-3.90;99.90
23371;DHT22;11858;51.056;3.712;2022-12-18T07:41:29;-4.00;99.90
23371;DHT22;11858;51.056;3.712;2022-12-18T07:43:55;-3.90;99.90
23371;DHT22;11858;51.056;3.712;2022-12-18T07:46:23;-3.90;99.90
23371;DHT22;11858;51.056;3.712;2022-12-18T07:48:49;-4.00;99.90
23371;DHT22;11858;51.056;3.712;2022-12-18T07:51:15;-4.00;99.90
23371;DHT22;11858;51.056;3.712;2022-12-18T07:53:41;-4.00;99.90
23371;DHT22;11858;51.056;3.712;2022-12-18T07:56:11;-4.10;99.90
23371;DHT22;11858;51.056;3.712;2022-12-18T07:58:37;-3.90;99.90
23371;DHT22;11858;51.056;3.712;2022-12-18T08:01:12;-3.90;99.90
23371;DHT22;11858;51.056;3.712;2022-12-18T08:03:39;-4.00;99.90
23371;DHT22;11858;51.056;3.712;2022-12-18T08:06:07;-4.00;99.90
23371;DHT22;11858;51.056;3.712;2022-12-18T08:08:35;-3.90;99.90
23371;DHT22;11858;51.056;3.712;2022-12-18T08:11:01;-3.90;99.90
23371;DHT22;11858;51.056;3.712;2022-12-18T08:13:27;-3.90;99.90
23371;DHT22;11858;51.056;3.712;2022-12-18T08:16:04;-3.70;99.90
23371;DHT22;11858;51.056;3.712;2022-12-18T08:18:32;-3.60;99.90
23371;DHT22;11858;51.056;3.712;2022-12-18T08:21:06;-3.60;99.90
23371;DHT22;11858;51.056;3.712;2022-12-18T08:23:32;-3.40;99.90
23371;DHT22;11858;51.056;3.712;2022-12-18T08:25:58;-3.40;99.90
23371;DHT22;11858;51.056;3.712;2022-12-18T08:28:24;-3.30;99.90
23371;DHT22;11858;51.056;3.712;2022-12-18T08:30:52;-3.20;99.90
23371;DHT22;11858;51.056;3.712;2022-12-18T08:33:17;-3.10;99.90
23371;DHT22;11858;51.056;3.712;2022-12-18T08:35:43;-3.00;99.90
23371;DHT22;11858;51.056;3.712;2022-12-18T08:38:08;-3.00;99.90
23371;DHT22;11858;51.056;3.712;2022-12-18T08:40:34;-2.80;99.90
23371;DHT22;11858;51.056;3.712;2022-12-18T08:43:00;-2.80;99.90
23371;DHT22;11858;51.056;3.712;2022-12-18T08:45:44;-2.70;99.90
23371;DHT22;11858;51.056;3.712;2022-12-18T08:48:10;-2.70;99.90
23371;DHT22;11858;51.056;3.712;2022-12-18T08:50:35;-2.60;99.90
23371;DHT22;11858;51.056;3.712;2022-12-18T08:53:02;-2.40;99.90
23371;DHT22;11858;51.056;3.712;2022-12-18T08:55:27;-2.10;99.90
23371;DHT22;11858;51.056;3.712;2022-12-18T08:57:53;-2.20;99.90
23371;DHT22;11858;51.056;3.712;2022-12-18T09:00:19;-2.20;99.90
23371;DHT22;11858;51.056;3.712;2022-12-18T09:02:45;-2.30;99.90
23371;DHT22;11858;51.056;3.712;2022-12-18T09:05:11;-2.20;99.90
23371;DHT22;11858;51.056;3.712;2022-12-18T09:07:36;-2.20;99.90
23371;DHT22;11858;51.056;3.712;2022-12-18T09:10:03;-2.20;99.90
23371;DHT22;11858;51.056;3.712;2022-12-18T09:12:29;-2.20;99.90
23371;DHT22;11858;51.056;3.712;2022-12-18T09:14:54;-2.10;99.90
23371;DHT22;11858;51.056;3.712;2022-12-18T09:17:22;-1.90;99.90
23371;DHT22;11858;51.056;3.712;2022-12-18T09:19:47;-2.00;99.90
23371;DHT22;11858;51.056;3.712;2022-12-18T09:22:13;-2.10;99.90
23371;DHT22;11858;51.056;3.712;2022-12-18T09:24:39;-2.00;99.90
23371;DHT22;11858;51.056;3.712;2022-12-18T09:27:04;-2.00;99.90
23371;DHT22;11858;51.056;3.712;2022-12-18T09:29:30;-2.00;99.90
23371;DHT22;11858;51.056;3.712;2022-12-18T09:31:56;-2.10;99.90
23371;DHT22;11858;51.056;3.712;2022-12-18T09:34:21;-2.10;99.90
23371;DHT22;11858;51.056;3.712;2022-12-18T09:36:48;-1.90;99.90
23371;DHT22;11858;51.056;3.712;2022-12-18T09:39:14;-1.90;99.90
23371;DHT22;11858;51.056;3.712;2022-12-18T09:41:43;-1.90;99.90
23371;DHT22;11858;51.056;3.712;2022-12-18T09:44:39;-1.80;99.90
23371;DHT22;11858;51.056;3.712;2022-12-18T09:47:25;-1.70;99.90
23371;DHT22;11858;51.056;3.712;2022-12-18T09:49:57;-1.50;99.90
23371;DHT22;11858;51.056;3.712;2022-12-18T09:52:25;-1.50;99.90
23371;DHT22;11858;51.056;3.712;2022-12-18T09:57:45;-1.50;99.90
23371;DHT22;11858;51.056;3.712;2022-12-18T10:00:21;-1.40;99.90
23371;DHT22;11858;51.056;3.712;2022-12-18T10:02:47;-1.50;99.90
23371;DHT22;11858;51.056;3.712;2022-12-18T10:05:28;-1.40;99.90
23371;DHT22;11858;51.056;3.712;2022-12-18T10:10:52;-1.30;99.90
23371;DHT22;11858;51.056;3.712;2022-12-18T10:13:31;-1.30;99.90
23371;DHT22;11858;51.056;3.712;2022-12-18T10:24:35;-1.20;99.90
23371;DHT22;11858;51.056;3.712;2022-12-18T10:27:17;-1.10;99.90
23371;DHT22;11858;51.056;3.712;2022-12-18T10:29:44;-1.10;99.90
23371;DHT22;11858;51.056;3.712;2022-12-18T10:32:17;-1.00;99.90
23371;DHT22;11858;51.056;3.712;2022-12-18T10:34:46;-1.00;99.90
23371;DHT22;11858;51.056;3.712;2022-12-18T10:37:17;-0.90;99.90
23371;DHT22;11858;51.056;3.712;2022-12-18T10:39:43;-0.80;99.90
23371;DHT22;11858;51.056;3.712;2022-12-18T10:42:20;-0.80;99.90
23371;DHT22;11858;51.056;3.712;2022-12-18T10:45:02;-0.70;99.90
23371;DHT22;11858;51.056;3.712;2022-12-18T10:47:27;-0.60;99.90
23371;DHT22;11858;51.056;3.712;2022-12-18T10:49:54;-0.60;99.90
23371;DHT22;11858;51.056;3.712;2022-12-18T10:52:22;-0.60;99.90
23371;DHT22;11858;51.056;3.712;2022-12-18T10:54:54;-0.70;99.90
23371;DHT22;11858;51.056;3.712;2022-12-18T10:57:34;-0.60;99.90
23371;DHT22;11858;51.056;3.712;2022-12-18T11:00:21;-0.60;99.90
23371;DHT22;11858;51.056;3.712;2022-12-18T11:02:47;-0.60;99.90
23371;DHT22;11858;51.056;3.712;2022-12-18T11:05:33;-0.60;99.90
23371;DHT22;11858;51.056;3.712;2022-12-18T11:08:00;-0.50;99.90
23371;DHT22;11858;51.056;3.712;2022-12-18T11:10:35;-0.60;99.90
23371;DHT22;11858;51.056;3.712;2022-12-18T11:13:17;-0.50;99.90
23371;DHT22;11858;51.056;3.712;2022-12-18T11:15:44;-0.40;99.90
23371;DHT22;11858;51.056;3.712;2022-12-18T11:21:07;-0.30;99.90
23371;DHT22;11858;51.056;3.712;2022-12-18T11:23:34;-0.40;99.90
23371;DHT22;11858;51.056;3.712;2022-12-18T11:26:04;-0.30;99.90
23371;DHT22;11858;51.056;3.712;2022-12-18T11:29:07;-0.20;99.90
23371;DHT22;11858;51.056;3.712;2022-12-18T11:31:33;-0.20;99.90
23371;DHT22;11858;51.056;3.712;2022-12-18T11:34:22;-0.30;99.90
23371;DHT22;11858;51.056;3.712;2022-12-18T11:36:48;-0.30;99.90
23371;DHT22;11858;51.056;3.712;2022-12-18T11:41:56;-0.20;99.90
23371;DHT22;11858;51.056;3.712;2022-12-18T11:44:48;-0.20;99.90
23371;DHT22;11858;51.056;3.712;2022-12-18T11:49:55;0.00;99.90
23371;DHT22;11858;51.056;3.712;2022-12-18T11:52:36;0.10;99.90
23371;DHT22;11858;51.056;3.712;2022-12-18T11:55:13;0.10;99.90
23371;DHT22;11858;51.056;3.712;2022-12-18T12:00:43;0.20;99.90
23371;DHT22;11858;51.056;3.712;2022-12-18T12:08:56;0.20;99.90
23371;DHT22;11858;51.056;3.712;2022-12-18T12:17:30;0.20;99.90
23371;DHT22;11858;51.056;3.712;2022-12-18T12:25:51;0.40;99.90
23371;DHT22;11858;51.056;3.712;2022-12-18T12:39:02;0.50;99.90
23371;DHT22;11858;51.056;3.712;2022-12-18T12:41:31;0.80;99.90
23371;DHT22;11858;51.056;3.712;2022-12-18T12:44:39;0.80;99.90
23371;DHT22;11858;51.056;3.712;2022-12-18T12:47:32;0.70;99.90
23371;DHT22;11858;51.056;3.712;2022-12-18T12:50:01;0.70;99.90
23371;DHT22;11858;51.056;3.712;2022-12-18T12:52:39;0.70;99.90
23371;DHT22;11858;51.056;3.712;2022-12-18T12:55:15;0.70;99.90
23371;DHT22;11858;51.056;3.712;2022-12-18T12:57:48;0.70;99.90
23371;DHT22;11858;51.056;3.712;2022-12-18T13:00:18;0.80;99.90
23371;DHT22;11858;51.056;3.712;2022-12-18T13:02:53;0.90;99.90
23371;DHT22;11858;51.056;3.712;2022-12-18T13:08:28;0.80;99.90
23371;DHT22;11858;51.056;3.712;2022-12-18T13:10:55;0.70;99.90
23371;DHT22;11858;51.056;3.712;2022-12-18T13:13:53;0.70;99.90
23371;DHT22;11858;51.056;3.712;2022-12-18T13:16:24;0.80;99.90
23371;DHT22;11858;51.056;3.712;2022-12-18T13:18:51;0.80;99.90
23371;DHT22;11858;51.056;3.712;2022-12-18T13:21:24;0.70;99.90
23371;DHT22;11858;51.056;3.712;2022-12-18T13:23:52;0.70;99.90
23371;DHT22;11858;51.056;3.712;2022-12-18T13:34:17;0.80;99.90
23371;DHT22;11858;51.056;3.712;2022-12-18T13:36:43;0.80;99.90
23371;DHT22;11858;51.056;3.712;2022-12-18T13:41:52;0.60;99.90
23371;DHT22;11858;51.056;3.712;2022-12-18T13:47:03;0.80;99.90
23371;DHT22;11858;51.056;3.712;2022-12-18T13:51:56;0.70;99.90
23371;DHT22;11858;51.056;3.712;2022-12-18T13:54:40;0.90;99.90
23371;DHT22;11858;51.056;3.712;2022-12-18T13:57:41;0.70;99.90
23371;DHT22;11858;51.056;3.712;2022-12-18T14:02:48;0.60;99.90
23371;DHT22;11858;51.056;3.712;2022-12-18T14:07:49;0.60;99.90
23371;DHT22;11858;51.056;3.712;2022-12-18T14:10:15;0.60;99.90
23371;DHT22;11858;51.056;3.712;2022-12-18T14:12:45;0.70;99.90
23371;DHT22;11858;51.056;3.712;2022-12-18T14:15:36;0.80;99.90
23371;DHT22;11858;51.056;3.712;2022-12-18T14:20:44;1.00;99.90
23371;DHT22;11858;51.056;3.712;2022-12-18T14:23:32;1.00;99.90
23371;DHT22;11858;51.056;3.712;2022-12-18T14:25:59;0.90;99.90
23371;DHT22;11858;51.056;3.712;2022-12-18T14:28:25;0.90;99.90
23371;DHT22;11858;51.056;3.712;2022-12-18T14:30:52;0.90;99.90
23371;DHT22;11858;51.056;3.712;2022-12-18T14:33:22;0.90;99.90
23371;DHT22;11858;51.056;3.712;2022-12-18T14:35:58;0.90;99.90
23371;DHT22;11858;51.056;3.712;2022-12-18T14:38:39;0.80;99.90
23371;DHT22;11858;51.056;3.712;2022-12-18T14:41:09;0.90;99.90
23371;DHT22;11858;51.056;3.712;2022-12-18T14:43:38;0.90;99.90
23371;DHT22;11858;51.056;3.712;2022-12-18T14:46:41;0.80;99.90
23371;DHT22;11858;51.056;3.712;2022-12-18T14:49:32;0.80;99.90
23371;DHT22;11858;51.056;3.712;2022-12-18T14:52:06;0.80;99.90
23371;DHT22;11858;51.056;3.712;2022-12-18T14:54:34;0.90;99.90
23371;DHT22;11858;51.056;3.712;2022-12-18T14:57:25;0.80;99.90
23371;DHT22;11858;51.056;3.712;2022-12-18T15:00:11;0.90;99.90
23371;DHT22;11858;51.056;3.712;2022-12-18T15:02:40;0.90;99.90
23371;DHT22;11858;51.056;3.712;2022-12-18T15:05:35;0.90;99.90
23371;DHT22;11858;51.056;3.712;2022-12-18T15:08:01;0.90;99.90
23371;DHT22;11858;51.056;3.712;2022-12-18T15:10:34;0.90;99.90
23371;DHT22;11858;51.056;3.712;2022-12-18T15:18:14;0.80;99.90
23371;DHT22;11858;51.056;3.712;2022-12-18T15:20:56;0.90;99.90
23371;DHT22;11858;51.056;3.712;2022-12-18T15:26:13;1.00;99.90
23371;DHT22;11858;51.056;3.712;2022-12-18T15:28:54;0.90;99.90
23371;DHT22;11858;51.056;3.712;2022-12-18T15:31:30;0.90;99.90
23371;DHT22;11858;51.056;3.712;2022-12-18T15:36:23;0.80;99.90
23371;DHT22;11858;51.056;3.712;2022-12-18T15:38:50;0.80;99.90
23371;DHT22;11858;51.056;3.712;2022-12-18T15:41:19;0.80;99.90
23371;DHT22;11858;51.056;3.712;2022-12-18T15:43:46;0.90;99.90
23371;DHT22;11858;51.056;3.712;2022-12-18T15:46:17;0.90;99.90
23371;DHT22;11858;51.056;3.712;2022-12-18T15:48:48;1.00;99.90
23371;DHT22;11858;51.056;3.712;2022-12-18T15:51:33;1.00;99.90
23371;DHT22;11858;51.056;3.712;2022-12-18T15:54:02;1.00;99.90
23371;DHT22;11858;51.056;3.712;2022-12-18T15:56:31;0.90;99.90
23371;DHT22;11858;51.056;3.712;2022-12-18T15:59:18;1.10;99.90
23371;DHT22;11858;51.056;3.712;2022-12-18T16:01:46;0.90;99.90
23371;DHT22;11858;51.056;3.712;2022-12-18T16:04:15;1.10;99.90
23371;DHT22;11858;51.056;3.712;2022-12-18T16:06:42;1.10;99.90
23371;DHT22;11858;51.056;3.712;2022-12-18T16:09:08;1.10;99.90
23371;DHT22;11858;51.056;3.712;2022-12-18T16:11:36;1.30;99.90
23371;DHT22;11858;51.056;3.712;2022-12-18T16:14:18;1.20;99.90
23371;DHT22;11858;51.056;3.712;2022-12-18T16:16:49;1.10;99.90
23371;DHT22;11858;51.056;3.712;2022-12-18T16:19:15;1.00;99.90
23371;DHT22;11858;51.056;3.712;2022-12-18T16:21:41;1.10;99.90
23371;DHT22;11858;51.056;3.712;2022-12-18T16:24:19;1.20;99.90
23371;DHT22;11858;51.056;3.712;2022-12-18T16:26:47;1.10;99.90
23371;DHT22;11858;51.056;3.712;2022-12-18T16:29:13;1.20;99.90
23371;DHT22;11858;51.056;3.712;2022-12-18T16:31:39;1.10;99.90
23371;DHT22;11858;51.056;3.712;2022-12-18T16:34:21;1.20;99.90
23371;DHT22;11858;51.056;3.712;2022-12-18T16:36:52;1.20;99.90
23371;DHT22;11858;51.056;3.712;2022-12-18T16:39:19;1.30;99.90
23371;DHT22;11858;51.056;3.712;2022-12-18T16:41:45;1.30;99.90
23371;DHT22;11858;51.056;3.712;2022-12-18T16:44:11;1.30;99.90
23371;DHT22;11858;51.056;3.712;2022-12-18T16:46:37;1.30;99.90
23371;DHT22;11858;51.056;3.712;2022-12-18T16:49:04;1.30;99.90
23371;DHT22;11858;51.056;3.712;2022-12-18T16:51:33;1.40;99.90
23371;DHT22;11858;51.056;3.712;2022-12-18T16:53:59;1.40;99.90
23371;DHT22;11858;51.056;3.712;2022-12-18T16:56:24;1.40;99.90
23371;DHT22;11858;51.056;3.712;2022-12-18T16:58:54;1.30;99.90
23371;DHT22;11858;51.056;3.712;2022-12-18T17:01:21;1.30;99.90
23371;DHT22;11858;51.056;3.712;2022-12-18T17:03:57;1.30;99.90
23371;DHT22;11858;51.056;3.712;2022-12-18T17:06:25;1.30;99.90
23371;DHT22;11858;51.056;3.712;2022-12-18T17:08:59;1.20;99.90
23371;DHT22;11858;51.056;3.712;2022-12-18T17:11:26;1.10;99.90
23371;DHT22;11858;51.056;3.712;2022-12-18T17:13:52;1.00;99.90
23371;DHT22;11858;51.056;3.712;2022-12-18T17:16:18;1.20;99.90
23371;DHT22;11858;51.056;3.712;2022-12-18T17:18:44;1.20;99.90
23371;DHT22;11858;51.056;3.712;2022-12-18T17:21:10;1.30;99.90
23371;DHT22;11858;51.056;3.712;2022-12-18T17:23:42;1.20;99.90
23371;DHT22;11858;51.056;3.712;2022-12-18T17:26:08;1.00;99.90
23371;DHT22;11858;51.056;3.712;2022-12-18T17:28:35;1.10;99.90
23371;DHT22;11858;51.056;3.712;2022-12-18T17:31:12;1.10;99.90
23371;DHT22;11858;51.056;3.712;2022-12-18T17:33:38;1.10;99.90
23371;DHT22;11858;51.056;3.712;2022-12-18T17:36:04;1.00;99.90
23371;DHT22;11858;51.056;3.712;2022-12-18T17:38:30;0.90;99.90
23371;DHT22;11858;51.056;3.712;2022-12-18T17:41:03;1.00;99.90
23371;DHT22;11858;51.056;3.712;2022-12-18T17:43:29;0.90;99.90
23371;DHT22;11858;51.056;3.712;2022-12-18T17:46:01;1.00;99.90
23371;DHT22;11858;51.056;3.712;2022-12-18T17:48:28;0.90;99.90